sensor_id;sensor_type;location;lat;lon;timestamp;P1;durP1;ratioP1;P2;durP2;ratioP2
35074;SDS011;21260;34.984;32.490;2022-12-24T00:00:36;29.00;;;17.40;;
35074;SDS011;21260;34.984;32.490;2022-12-24T00:03:03;33.23;;;17.50;;
35074;SDS011;21260;34.984;32.490;2022-12-24T00:05:29;36.33;;;18.13;;
35074;SDS011;21260;34.984;32.490;2022-12-24T00:07:55;33.23;;;18.00;;
35074;SDS011;21260;34.984;32.490;2022-12-24T00:10:22;33.43;;;18.93;;
35074;SDS011;21260;34.984;32.490;2022-12-24T00:12:48;29.63;;;17.23;;
35074;SDS011;21260;34.984;32.490;2022-12-24T00:15:15;33.03;;;17.13;;
35074;SDS011;21260;34.984;32.490;2022-12-24T00:17:41;33.40;;;18.53;;
35074;SDS011;21260;34.984;32.490;2022-12-24T00:20:07;32.03;;;17.53;;
35074;SDS011;21260;34.984;32.490;2022-12-24T00:22:34;34.53;;;18.30;;
35074;SDS011;21260;34.984;32.490;2022-12-24T00:25:01;34.53;;;18.10;;
35074;SDS011;21260;34.984;32.490;2022-12-24T00:27:28;29.87;;;17.67;;
35074;SDS011;21260;34.984;32.490;2022-12-24T00:29:54;34.13;;;18.13;;
35074;SDS011;21260;34.984;32.490;2022-12-24T00:32:21;39.87;;;18.20;;
35074;SDS011;21260;34.984;32.490;2022-12-24T00:34:47;34.20;;;18.57;;
35074;SDS011;21260;34.984;32.490;2022-12-24T00:37:14;29.47;;;17.00;;
35074;SDS011;21260;34.984;32.490;2022-12-24T00:39:41;31.70;;;18.13;;
35074;SDS011;21260;34.984;32.490;2022-12-24T00:42:07;27.13;;;16.80;;
35074;SDS011;21260;34.984;32.490;2022-12-24T00:44:33;28.17;;;15.97;;
35074;SDS011;21260;34.984;32.490;2022-12-24T00:47:00;27.83;;;17.63;;
35074;SDS011;21260;34.984;32.490;2022-12-24T00:49:27;33.13;;;17.83;;
35074;SDS011;21260;34.984;32.490;2022-12-24T00:51:53;44.87;;;16.67;;
35074;SDS011;21260;34.984;32.490;2022-12-24T00:54:21;35.67;;;17.97;;
35074;SDS011;21260;34.984;32.490;2022-12-24T00:56:47;27.03;;;17.17;;
35074;SDS011;21260;34.984;32.490;2022-12-24T00:59:13;32.50;;;18.43;;
35074;SDS011;21260;34.984;32.490;2022-12-24T01:01:40;33.13;;;17.80;;
35074;SDS011;21260;34.984;32.490;2022-12-24T01:04:07;31.03;;;17.87;;
35074;SDS011;21260;34.984;32.490;2022-12-24T01:06:52;27.07;;;16.93;;
35074;SDS011;21260;34.984;32.490;2022-12-24T01:09:20;35.37;;;18.53;;
35074;SDS011;21260;34.984;32.490;2022-12-24T01:11:46;28.07;;;17.67;;
35074;SDS011;21260;34.984;32.490;2022-12-24T01:14:14;38.20;;;19.70;;
35074;SDS011;21260;34.984;32.490;2022-12-24T01:16:41;31.17;;;17.63;;
35074;SDS011;21260;34.984;32.490;2022-12-24T01:19:09;43.10;;;18.87;;
35074;SDS011;21260;34.984;32.490;2022-12-24T01:21:35;29.70;;;18.27;;
35074;SDS011;21260;34.984;32.490;2022-12-24T01:24:01;30.47;;;17.63;;
35074;SDS011;21260;34.984;32.490;2022-12-24T01:26:28;25.83;;;17.23;;
35074;SDS011;21260;34.984;32.490;2022-12-24T01:28:54;37.27;;;17.93;;
35074;SDS011;21260;34.984;32.490;2022-12-24T01:31:21;27.37;;;16.83;;
35074;SDS011;21260;34.984;32.490;2022-12-24T01:33:48;34.87;;;17.23;;
35074;SDS011;21260;34.984;32.490;2022-12-24T01:36:14;35.57;;;19.03;;
35074;SDS011;21260;34.984;32.490;2022-12-24T01:38:41;28.70;;;17.60;;
35074;SDS011;21260;34.984;32.490;2022-12-24T01:41:12;33.30;;;18.60;;
35074;SDS011;21260;34.984;32.490;2022-12-24T01:49:57;28.57;;;15.73;;
35074;SDS011;21260;34.984;32.490;2022-12-24T01:52:33;30.50;;;17.77;;
35074;SDS011;21260;34.984;32.490;2022-12-24T01:55:12;32.50;;;17.20;;
35074;SDS011;21260;34.984;32.490;2022-12-24T01:57:44;31.40;;;17.73;;
35074;SDS011;21260;34.984;32.490;2022-12-24T02:00:17;30.87;;;17.23;;
35074;SDS011;21260;34.984;32.490;2022-12-24T02:02:45;35.87;;;18.00;;
35074;SDS011;21260;34.984;32.490;2022-12-24T02:05:36;29.17;;;17.13;;
35074;SDS011;21260;34.984;32.490;2022-12-24T02:08:12;44.23;;;17.03;;
35074;SDS011;21260;34.984;32.490;2022-12-24T02:10:41;34.80;;;17.17;;
35074;SDS011;21260;34.984;32.490;2022-12-24T02:13:08;29.50;;;16.90;;
35074;SDS011;21260;34.984;32.490;2022-12-24T02:27:57;28.83;;;17.37;;
35074;SDS011;21260;34.984;32.490;2022-12-24T02:30:56;32.93;;;17.13;;
35074;SDS011;21260;34.984;32.490;2022-12-24T02:33:49;32.23;;;16.63;;
35074;SDS011;21260;34.984;32.490;2022-12-24T02:36:34;32.30;;;17.27;;
35074;SDS011;21260;34.984;32.490;2022-12-24T02:39:18;31.20;;;18.03;;
35074;SDS011;21260;34.984;32.490;2022-12-24T02:41:52;28.90;;;17.07;;
35074;SDS011;21260;34.984;32.490;2022-12-24T02:44:43;42.23;;;18.50;;
35074;SDS011;21260;34.984;32.490;2022-12-24T02:47:20;32.90;;;17.40;;
35074;SDS011;21260;34.984;32.490;2022-12-24T02:49:52;29.13;;;18.47;;
35074;SDS011;21260;34.984;32.490;2022-12-24T02:52:29;37.90;;;18.47;;
35074;SDS011;21260;34.984;32.490;2022-12-24T03:10:41;29.63;;;18.60;;
35074;SDS011;21260;34.984;32.490;2022-12-24T03:13:34;29.43;;;18.43;;
35074;SDS011;21260;34.984;32.490;2022-12-24T03:16:05;29.63;;;17.93;;
35074;SDS011;21260;34.984;32.490;2022-12-24T03:18:39;34.83;;;18.83;;
35074;SDS011;21260;34.984;32.490;2022-12-24T03:23:53;30.00;;;18.57;;
35074;SDS011;21260;34.984;32.490;2022-12-24T03:26:20;30.73;;;18.10;;
35074;SDS011;21260;34.984;32.490;2022-12-24T03:28:49;34.97;;;18.67;;
35074;SDS011;21260;34.984;32.490;2022-12-24T03:31:15;26.67;;;17.67;;
35074;SDS011;21260;34.984;32.490;2022-12-24T03:33:43;27.53;;;18.27;;
35074;SDS011;21260;34.984;32.490;2022-12-24T03:36:12;27.37;;;18.13;;
35074;SDS011;21260;34.984;32.490;2022-12-24T03:38:39;30.10;;;17.97;;
35074;SDS011;21260;34.984;32.490;2022-12-24T03:41:05;25.93;;;17.97;;
35074;SDS011;21260;34.984;32.490;2022-12-24T03:43:32;28.93;;;18.70;;
35074;SDS011;21260;34.984;32.490;2022-12-24T03:46:03;26.37;;;18.40;;
35074;SDS011;21260;34.984;32.490;2022-12-24T03:48:33;27.97;;;18.50;;
35074;SDS011;21260;34.984;32.490;2022-12-24T03:51:01;31.03;;;17.63;;
35074;SDS011;21260;34.984;32.490;2022-12-24T03:53:28;25.90;;;18.10;;
35074;SDS011;21260;34.984;32.490;2022-12-24T03:55:55;32.27;;;17.87;;
35074;SDS011;21260;34.984;32.490;2022-12-24T03:58:22;29.77;;;18.30;;
35074;SDS011;21260;34.984;32.490;2022-12-24T04:00:51;30.30;;;17.93;;
35074;SDS011;21260;34.984;32.490;2022-12-24T04:03:18;31.33;;;18.67;;
35074;SDS011;21260;34.984;32.490;2022-12-24T04:05:45;36.37;;;18.13;;
35074;SDS011;21260;34.984;32.490;2022-12-24T04:08:12;29.40;;;18.93;;
35074;SDS011;21260;34.984;32.490;2022-12-24T04:10:40;30.67;;;16.53;;
35074;SDS011;21260;34.984;32.490;2022-12-24T04:13:07;29.87;;;18.70;;
35074;SDS011;21260;34.984;32.490;2022-12-24T04:15:33;30.63;;;17.47;;
35074;SDS011;21260;34.984;32.490;2022-12-24T04:18:01;31.43;;;17.80;;
35074;SDS011;21260;34.984;32.490;2022-12-24T04:20:28;33.20;;;18.60;;
35074;SDS011;21260;34.984;32.490;2022-12-24T04:22:54;27.07;;;17.67;;
35074;SDS011;21260;34.984;32.490;2022-12-24T04:25:21;27.73;;;17.57;;
35074;SDS011;21260;34.984;32.490;2022-12-24T04:27:48;28.53;;;18.03;;
35074;SDS011;21260;34.984;32.490;2022-12-24T04:30:14;28.27;;;17.20;;
35074;SDS011;21260;34.984;32.490;2022-12-24T04:32:41;27.67;;;18.07;;
35074;SDS011;21260;34.984;32.490;2022-12-24T04:35:08;27.43;;;16.93;;
35074;SDS011;21260;34.984;32.490;2022-12-24T04:37:34;26.37;;;16.17;;
35074;SDS011;21260;34.984;32.490;2022-12-24T04:40:00;25.03;;;16.67;;
35074;SDS011;21260;34.984;32.490;2022-12-24T04:42:27;21.67;;;15.53;;
35074;SDS011;21260;34.984;32.490;2022-12-24T04:44:54;22.20;;;13.63;;
35074;SDS011;21260;34.984;32.490;2022-12-24T04:47:21;20.43;;;14.03;;
35074;SDS011;21260;34.984;32.490;2022-12-24T04:49:48;17.73;;;14.43;;
35074;SDS011;21260;34.984;32.490;2022-12-24T04:52:14;19.20;;;14.40;;
35074;SDS011;21260;34.984;32.490;2022-12-24T04:54:41;17.67;;;14.50;;
35074;SDS011;21260;34.984;32.490;2022-12-24T04:57:07;19.60;;;13.57;;
35074;SDS011;21260;34.984;32.490;2022-12-24T04:59:34;22.03;;;14.97;;
35074;SDS011;21260;34.984;32.490;2022-12-24T05:02:01;18.60;;;14.27;;
35074;SDS011;21260;34.984;32.490;2022-12-24T05:04:28;22.87;;;14.73;;
35074;SDS011;21260;34.984;32.490;2022-12-24T05:06:56;20.30;;;14.87;;
35074;SDS011;21260;34.984;32.490;2022-12-24T05:09:22;18.27;;;14.90;;
35074;SDS011;21260;34.984;32.490;2022-12-24T05:11:48;20.07;;;15.13;;
35074;SDS011;21260;34.984;32.490;2022-12-24T05:14:16;22.97;;;14.57;;
35074;SDS011;21260;34.984;32.490;2022-12-24T05:16:43;19.47;;;15.90;;
35074;SDS011;21260;34.984;32.490;2022-12-24T05:19:09;22.60;;;16.07;;
35074;SDS011;21260;34.984;32.490;2022-12-24T05:21:35;21.07;;;16.37;;
35074;SDS011;21260;34.984;32.490;2022-12-24T05:24:02;25.20;;;16.73;;
35074;SDS011;21260;34.984;32.490;2022-12-24T05:26:52;24.10;;;18.53;;
35074;SDS011;21260;34.984;32.490;2022-12-24T05:29:23;29.33;;;17.70;;
35074;SDS011;21260;34.984;32.490;2022-12-24T05:31:50;27.67;;;18.20;;
35074;SDS011;21260;34.984;32.490;2022-12-24T05:34:21;27.87;;;18.07;;
35074;SDS011;21260;34.984;32.490;2022-12-24T05:36:48;27.83;;;19.47;;
35074;SDS011;21260;34.984;32.490;2022-12-24T05:39:17;30.83;;;18.57;;
35074;SDS011;21260;34.984;32.490;2022-12-24T05:41:43;29.83;;;18.57;;
35074;SDS011;21260;34.984;32.490;2022-12-24T05:44:10;26.40;;;18.17;;
35074;SDS011;21260;34.984;32.490;2022-12-24T05:46:40;27.27;;;18.43;;
35074;SDS011;21260;34.984;32.490;2022-12-24T05:49:07;25.90;;;17.23;;
35074;SDS011;21260;34.984;32.490;2022-12-24T05:51:34;27.23;;;18.50;;
35074;SDS011;21260;34.984;32.490;2022-12-24T05:54:01;27.60;;;18.80;;
35074;SDS011;21260;34.984;32.490;2022-12-24T05:56:28;30.60;;;18.60;;
35074;SDS011;21260;34.984;32.490;2022-12-24T05:58:56;30.23;;;17.33;;
35074;SDS011;21260;34.984;32.490;2022-12-24T06:01:23;25.47;;;17.97;;
35074;SDS011;21260;34.984;32.490;2022-12-24T06:03:51;26.83;;;17.03;;
35074;SDS011;21260;34.984;32.490;2022-12-24T06:06:24;26.73;;;17.83;;
35074;SDS011;21260;34.984;32.490;2022-12-24T06:08:53;27.07;;;17.53;;
35074;SDS011;21260;34.984;32.490;2022-12-24T06:11:22;28.40;;;17.90;;
35074;SDS011;21260;34.984;32.490;2022-12-24T06:13:51;31.93;;;18.87;;
35074;SDS011;21260;34.984;32.490;2022-12-24T06:16:19;36.83;;;18.30;;
35074;SDS011;21260;34.984;32.490;2022-12-24T06:18:48;27.20;;;18.50;;
35074;SDS011;21260;34.984;32.490;2022-12-24T06:21:16;31.90;;;18.83;;
35074;SDS011;21260;34.984;32.490;2022-12-24T06:23:43;25.87;;;18.10;;
35074;SDS011;21260;34.984;32.490;2022-12-24T06:26:11;35.20;;;18.67;;
35074;SDS011;21260;34.984;32.490;2022-12-24T06:28:45;31.67;;;17.87;;
35074;SDS011;21260;34.984;32.490;2022-12-24T06:31:16;35.73;;;18.60;;
35074;SDS011;21260;34.984;32.490;2022-12-24T06:33:46;29.97;;;18.57;;
35074;SDS011;21260;34.984;32.490;2022-12-24T06:36:17;30.90;;;18.97;;
35074;SDS011;21260;34.984;32.490;2022-12-24T06:38:49;31.23;;;18.33;;
35074;SDS011;21260;34.984;32.490;2022-12-24T06:41:18;29.10;;;18.13;;
35074;SDS011;21260;34.984;32.490;2022-12-24T06:43:45;29.23;;;18.37;;
35074;SDS011;21260;34.984;32.490;2022-12-24T06:46:15;31.60;;;17.80;;
35074;SDS011;21260;34.984;32.490;2022-12-24T06:48:44;30.47;;;17.67;;
35074;SDS011;21260;34.984;32.490;2022-12-24T06:51:12;28.50;;;18.60;;
35074;SDS011;21260;34.984;32.490;2022-12-24T06:53:40;27.60;;;18.83;;
35074;SDS011;21260;34.984;32.490;2022-12-24T06:56:08;28.67;;;18.67;;
35074;SDS011;21260;34.984;32.490;2022-12-24T06:58:38;32.20;;;16.90;;
35074;SDS011;21260;34.984;32.490;2022-12-24T07:01:06;27.50;;;17.63;;
35074;SDS011;21260;34.984;32.490;2022-12-24T07:03:37;32.17;;;18.70;;
35074;SDS011;21260;34.984;32.490;2022-12-24T07:06:03;24.33;;;17.37;;
35074;SDS011;21260;34.984;32.490;2022-12-24T07:08:31;26.80;;;17.30;;
35074;SDS011;21260;34.984;32.490;2022-12-24T07:11:00;24.50;;;16.10;;
35074;SDS011;21260;34.984;32.490;2022-12-24T07:13:27;24.50;;;16.67;;
35074;SDS011;21260;34.984;32.490;2022-12-24T07:15:58;26.93;;;17.27;;
35074;SDS011;21260;34.984;32.490;2022-12-24T07:18:27;22.53;;;16.60;;
35074;SDS011;21260;34.984;32.490;2022-12-24T07:20:54;24.43;;;16.80;;
35074;SDS011;21260;34.984;32.490;2022-12-24T07:23:21;23.30;;;17.17;;
35074;SDS011;21260;34.984;32.490;2022-12-24T07:25:48;23.57;;;17.07;;
35074;SDS011;21260;34.984;32.490;2022-12-24T07:28:14;29.77;;;16.97;;
35074;SDS011;21260;34.984;32.490;2022-12-24T07:30:41;21.37;;;16.27;;
35074;SDS011;21260;34.984;32.490;2022-12-24T07:33:07;23.17;;;16.53;;
35074;SDS011;21260;34.984;32.490;2022-12-24T07:35:34;23.37;;;17.07;;
35074;SDS011;21260;34.984;32.490;2022-12-24T07:38:00;22.60;;;16.63;;
35074;SDS011;21260;34.984;32.490;2022-12-24T07:40:28;22.17;;;17.30;;
35074;SDS011;21260;34.984;32.490;2022-12-24T07:42:54;26.33;;;18.30;;
35074;SDS011;21260;34.984;32.490;2022-12-24T07:45:21;23.40;;;17.77;;
35074;SDS011;21260;34.984;32.490;2022-12-24T07:47:48;22.23;;;16.83;;
35074;SDS011;21260;34.984;32.490;2022-12-24T07:50:15;29.60;;;18.27;;
35074;SDS011;21260;34.984;32.490;2022-12-24T07:52:41;26.70;;;18.07;;
35074;SDS011;21260;34.984;32.490;2022-12-24T07:55:07;25.80;;;18.63;;
35074;SDS011;21260;34.984;32.490;2022-12-24T07:57:34;24.73;;;16.17;;
35074;SDS011;21260;34.984;32.490;2022-12-24T08:00:00;22.33;;;16.37;;
35074;SDS011;21260;34.984;32.490;2022-12-24T08:02:27;22.93;;;16.30;;
35074;SDS011;21260;34.984;32.490;2022-12-24T08:04:53;24.00;;;16.47;;
35074;SDS011;21260;34.984;32.490;2022-12-24T08:07:20;22.97;;;16.57;;
35074;SDS011;21260;34.984;32.490;2022-12-24T08:09:47;24.13;;;16.60;;
35074;SDS011;21260;34.984;32.490;2022-12-24T08:12:13;19.00;;;16.23;;
35074;SDS011;21260;34.984;32.490;2022-12-24T08:14:39;21.03;;;16.53;;
35074;SDS011;21260;34.984;32.490;2022-12-24T08:17:05;19.27;;;15.77;;
35074;SDS011;21260;34.984;32.490;2022-12-24T08:19:32;20.10;;;16.53;;
35074;SDS011;21260;34.984;32.490;2022-12-24T08:21:58;21.13;;;16.67;;
35074;SDS011;21260;34.984;32.490;2022-12-24T08:24:25;27.57;;;16.63;;
35074;SDS011;21260;34.984;32.490;2022-12-24T08:26:51;23.00;;;16.10;;
35074;SDS011;21260;34.984;32.490;2022-12-24T08:29:18;20.53;;;16.33;;
35074;SDS011;21260;34.984;32.490;2022-12-24T08:31:44;23.33;;;16.50;;
35074;SDS011;21260;34.984;32.490;2022-12-24T08:34:11;28.20;;;17.03;;
35074;SDS011;21260;34.984;32.490;2022-12-24T08:36:40;20.53;;;16.37;;
35074;SDS011;21260;34.984;32.490;2022-12-24T08:39:07;27.07;;;16.53;;
35074;SDS011;21260;34.984;32.490;2022-12-24T08:41:34;29.43;;;18.07;;
35074;SDS011;21260;34.984;32.490;2022-12-24T08:44:01;25.47;;;17.30;;
35074;SDS011;21260;34.984;32.490;2022-12-24T08:46:27;24.00;;;16.93;;
35074;SDS011;21260;34.984;32.490;2022-12-24T08:48:53;20.10;;;15.67;;
35074;SDS011;21260;34.984;32.490;2022-12-24T08:51:20;20.30;;;16.53;;
35074;SDS011;21260;34.984;32.490;2022-12-24T08:53:46;21.53;;;17.13;;
35074;SDS011;21260;34.984;32.490;2022-12-24T08:56:12;21.90;;;17.00;;
35074;SDS011;21260;34.984;32.490;2022-12-24T08:58:39;22.13;;;16.90;;
35074;SDS011;21260;34.984;32.490;2022-12-24T09:01:12;23.00;;;16.73;;
35074;SDS011;21260;34.984;32.490;2022-12-24T09:03:42;22.93;;;16.00;;
35074;SDS011;21260;34.984;32.490;2022-12-24T09:06:10;22.90;;;16.70;;
35074;SDS011;21260;34.984;32.490;2022-12-24T09:08:37;19.37;;;15.80;;
35074;SDS011;21260;34.984;32.490;2022-12-24T09:11:05;23.80;;;16.40;;
35074;SDS011;21260;34.984;32.490;2022-12-24T09:13:37;21.90;;;16.17;;
35074;SDS011;21260;34.984;32.490;2022-12-24T09:16:04;22.07;;;16.77;;
35074;SDS011;21260;34.984;32.490;2022-12-24T09:18:32;21.63;;;15.60;;
35074;SDS011;21260;34.984;32.490;2022-12-24T09:21:03;21.70;;;16.03;;
35074;SDS011;21260;34.984;32.490;2022-12-24T09:23:39;24.70;;;15.83;;
35074;SDS011;21260;34.984;32.490;2022-12-24T09:26:14;22.13;;;16.07;;
35074;SDS011;21260;34.984;32.490;2022-12-24T09:28:45;18.87;;;14.50;;
35074;SDS011;21260;34.984;32.490;2022-12-24T09:31:12;17.07;;;13.50;;
35074;SDS011;21260;34.984;32.490;2022-12-24T09:33:40;15.77;;;13.10;;
35074;SDS011;21260;34.984;32.490;2022-12-24T09:36:09;15.33;;;13.03;;
35074;SDS011;21260;34.984;32.490;2022-12-24T09:38:36;19.40;;;14.07;;
35074;SDS011;21260;34.984;32.490;2022-12-24T09:44:05;16.20;;;12.57;;
35074;SDS011;21260;34.984;32.490;2022-12-24T09:46:52;15.03;;;13.00;;
35074;SDS011;21260;34.984;32.490;2022-12-24T09:49:21;20.13;;;13.70;;
35074;SDS011;21260;34.984;32.490;2022-12-24T09:51:55;20.30;;;13.57;;
35074;SDS011;21260;34.984;32.490;2022-12-24T09:54:35;16.83;;;13.93;;
35074;SDS011;21260;34.984;32.490;2022-12-24T09:57:23;17.17;;;13.47;;
35074;SDS011;21260;34.984;32.490;2022-12-24T09:59:56;18.67;;;14.40;;
35074;SDS011;21260;34.984;32.490;2022-12-24T10:02:23;21.80;;;13.80;;
35074;SDS011;21260;34.984;32.490;2022-12-24T10:04:49;19.13;;;13.77;;
35074;SDS011;21260;34.984;32.490;2022-12-24T10:10:26;17.93;;;13.50;;
35074;SDS011;21260;34.984;32.490;2022-12-24T10:13:38;17.23;;;13.93;;
35074;SDS011;21260;34.984;32.490;2022-12-24T10:16:36;16.53;;;13.97;;
35074;SDS011;21260;34.984;32.490;2022-12-24T10:25:31;20.37;;;13.83;;
35074;SDS011;21260;34.984;32.490;2022-12-24T10:32:08;18.00;;;14.60;;
35074;SDS011;21260;34.984;32.490;2022-12-24T10:35:33;20.53;;;14.33;;
35074;SDS011;21260;34.984;32.490;2022-12-24T10:37:39;21.63;;;16.07;;
35074;SDS011;21260;34.984;32.490;2022-12-24T10:40:57;20.73;;;15.60;;
35074;SDS011;21260;34.984;32.490;2022-12-24T10:43:15;21.87;;;15.60;;
35074;SDS011;21260;34.984;32.490;2022-12-24T10:45:47;22.37;;;16.27;;
35074;SDS011;21260;34.984;32.490;2022-12-24T10:48:44;18.67;;;15.80;;
35074;SDS011;21260;34.984;32.490;2022-12-24T10:51:16;23.60;;;16.70;;
35074;SDS011;21260;34.984;32.490;2022-12-24T10:53:58;20.07;;;15.67;;
35074;SDS011;21260;34.984;32.490;2022-12-24T10:56:37;23.63;;;16.87;;
35074;SDS011;21260;34.984;32.490;2022-12-24T10:59:24;24.93;;;16.20;;
35074;SDS011;21260;34.984;32.490;2022-12-24T11:05:03;18.90;;;15.47;;
35074;SDS011;21260;34.984;32.490;2022-12-24T11:10:28;26.37;;;16.00;;
35074;SDS011;21260;34.984;32.490;2022-12-24T11:12:57;26.43;;;16.20;;
35074;SDS011;21260;34.984;32.490;2022-12-24T11:15:32;26.67;;;15.67;;
35074;SDS011;21260;34.984;32.490;2022-12-24T11:18:01;21.27;;;15.60;;
35074;SDS011;21260;34.984;32.490;2022-12-24T11:20:37;24.13;;;16.60;;
35074;SDS011;21260;34.984;32.490;2022-12-24T11:23:04;20.47;;;15.60;;
35074;SDS011;21260;34.984;32.490;2022-12-24T11:25:38;24.80;;;15.77;;
35074;SDS011;21260;34.984;32.490;2022-12-24T11:28:23;20.53;;;15.30;;
35074;SDS011;21260;34.984;32.490;2022-12-24T11:30:55;19.43;;;15.63;;
35074;SDS011;21260;34.984;32.490;2022-12-24T11:33:29;17.57;;;14.47;;
35074;SDS011;21260;34.984;32.490;2022-12-24T11:36:09;22.47;;;16.17;;
35074;SDS011;21260;34.984;32.490;2022-12-24T11:38:38;18.90;;;15.23;;
35074;SDS011;21260;34.984;32.490;2022-12-24T11:41:11;19.10;;;15.03;;
35074;SDS011;21260;34.984;32.490;2022-12-24T11:43:42;18.53;;;15.30;;
35074;SDS011;21260;34.984;32.490;2022-12-24T11:46:16;19.60;;;15.63;;
35074;SDS011;21260;34.984;32.490;2022-12-24T11:54:27;25.13;;;17.57;;
35074;SDS011;21260;34.984;32.490;2022-12-24T11:57:01;21.83;;;17.13;;
35074;SDS011;21260;34.984;32.490;2022-12-24T11:59:37;22.27;;;16.83;;
35074;SDS011;21260;34.984;32.490;2022-12-24T12:02:17;21.63;;;16.93;;
35074;SDS011;21260;34.984;32.490;2022-12-24T12:05:06;18.63;;;14.83;;
35074;SDS011;21260;34.984;32.490;2022-12-24T12:07:54;20.43;;;15.73;;
35074;SDS011;21260;34.984;32.490;2022-12-24T12:10:35;18.63;;;16.40;;
35074;SDS011;21260;34.984;32.490;2022-12-24T12:18:36;22.13;;;15.93;;
35074;SDS011;21260;34.984;32.490;2022-12-24T12:21:49;20.03;;;16.40;;
35074;SDS011;21260;34.984;32.490;2022-12-24T12:24:11;21.80;;;17.57;;
35074;SDS011;21260;34.984;32.490;2022-12-24T12:26:47;21.80;;;16.60;;
35074;SDS011;21260;34.984;32.490;2022-12-24T12:29:48;21.83;;;17.47;;
35074;SDS011;21260;34.984;32.490;2022-12-24T12:32:40;26.70;;;18.07;;
35074;SDS011;21260;34.984;32.490;2022-12-24T12:35:27;26.07;;;19.17;;
35074;SDS011;21260;34.984;32.490;2022-12-24T12:56:20;25.80;;;19.27;;
35074;SDS011;21260;34.984;32.490;2022-12-24T12:59:03;27.60;;;18.83;;
35074;SDS011;21260;34.984;32.490;2022-12-24T13:17:47;24.13;;;18.07;;
35074;SDS011;21260;34.984;32.490;2022-12-24T13:20:41;20.97;;;17.73;;
35074;SDS011;21260;34.984;32.490;2022-12-24T13:23:20;23.13;;;18.37;;
35074;SDS011;21260;34.984;32.490;2022-12-24T13:25:51;22.10;;;17.30;;
35074;SDS011;21260;34.984;32.490;2022-12-24T13:30:48;24.00;;;17.53;;
35074;SDS011;21260;34.984;32.490;2022-12-24T13:38:43;22.73;;;17.10;;
35074;SDS011;21260;34.984;32.490;2022-12-24T13:49:42;19.93;;;16.03;;
35074;SDS011;21260;34.984;32.490;2022-12-24T13:52:16;22.20;;;15.93;;
35074;SDS011;21260;34.984;32.490;2022-12-24T14:00:41;22.63;;;16.27;;
35074;SDS011;21260;34.984;32.490;2022-12-24T14:03:30;20.30;;;15.77;;
35074;SDS011;21260;34.984;32.490;2022-12-24T14:08:51;18.37;;;15.03;;
35074;SDS011;21260;34.984;32.490;2022-12-24T14:14:30;18.97;;;14.57;;
35074;SDS011;21260;34.984;32.490;2022-12-24T14:17:00;18.17;;;14.97;;
35074;SDS011;21260;34.984;32.490;2022-12-24T14:19:47;17.07;;;14.17;;
35074;SDS011;21260;34.984;32.490;2022-12-24T14:22:27;14.80;;;12.57;;
35074;SDS011;21260;34.984;32.490;2022-12-24T14:25:00;13.03;;;10.80;;
35074;SDS011;21260;34.984;32.490;2022-12-24T14:27:43;14.17;;;11.07;;
35074;SDS011;21260;34.984;32.490;2022-12-24T14:32:47;11.87;;;10.40;;
35074;SDS011;21260;34.984;32.490;2022-12-24T14:35:18;11.30;;;9.53;;
35074;SDS011;21260;34.984;32.490;2022-12-24T14:38:03;11.73;;;9.90;;
35074;SDS011;21260;34.984;32.490;2022-12-24T14:44:07;14.13;;;9.70;;
35074;SDS011;21260;34.984;32.490;2022-12-24T14:46:56;12.33;;;9.10;;
35074;SDS011;21260;34.984;32.490;2022-12-24T14:50:10;14.03;;;9.40;;
35074;SDS011;21260;34.984;32.490;2022-12-24T14:52:59;11.83;;;8.60;;
35074;SDS011;21260;34.984;32.490;2022-12-24T14:55:50;10.30;;;8.90;;
35074;SDS011;21260;34.984;32.490;2022-12-24T14:58:20;12.33;;;9.60;;
35074;SDS011;21260;34.984;32.490;2022-12-24T15:00:58;10.73;;;8.87;;
35074;SDS011;21260;34.984;32.490;2022-12-24T15:03:31;10.13;;;8.50;;
35074;SDS011;21260;34.984;32.490;2022-12-24T15:06:02;11.17;;;8.67;;
35074;SDS011;21260;34.984;32.490;2022-12-24T15:08:43;10.20;;;8.80;;
35074;SDS011;21260;34.984;32.490;2022-12-24T15:11:15;8.83;;;7.93;;
35074;SDS011;21260;34.984;32.490;2022-12-24T15:13:50;9.97;;;8.27;;
35074;SDS011;21260;34.984;32.490;2022-12-24T15:16:26;12.70;;;8.47;;
35074;SDS011;21260;34.984;32.490;2022-12-24T15:19:15;9.20;;;8.30;;
35074;SDS011;21260;34.984;32.490;2022-12-24T15:21:53;10.97;;;8.63;;
35074;SDS011;21260;34.984;32.490;2022-12-24T15:27:00;11.63;;;9.00;;
35074;SDS011;21260;34.984;32.490;2022-12-24T15:29:41;9.30;;;8.00;;
35074;SDS011;21260;34.984;32.490;2022-12-24T15:32:11;11.47;;;8.53;;
35074;SDS011;21260;34.984;32.490;2022-12-24T15:34:42;9.03;;;8.13;;
35074;SDS011;21260;34.984;32.490;2022-12-24T15:37:25;10.63;;;7.63;;
35074;SDS011;21260;34.984;32.490;2022-12-24T15:42:34;10.43;;;7.80;;
35074;SDS011;21260;34.984;32.490;2022-12-24T15:45:24;9.93;;;8.03;;
35074;SDS011;21260;34.984;32.490;2022-12-24T15:48:06;10.60;;;8.17;;
35074;SDS011;21260;34.984;32.490;2022-12-24T15:50:37;10.73;;;8.40;;
35074;SDS011;21260;34.984;32.490;2022-12-24T15:53:12;10.03;;;7.80;;
35074;SDS011;21260;34.984;32.490;2022-12-24T15:56:49;11.60;;;7.47;;
35074;SDS011;21260;34.984;32.490;2022-12-24T16:01:52;8.43;;;7.57;;
35074;SDS011;21260;34.984;32.490;2022-12-24T16:04:23;8.10;;;7.30;;
35074;SDS011;21260;34.984;32.490;2022-12-24T16:06:56;8.30;;;7.50;;
35074;SDS011;21260;34.984;32.490;2022-12-24T16:09:44;14.60;;;8.10;;
35074;SDS011;21260;34.984;32.490;2022-12-24T16:12:11;9.17;;;8.20;;
35074;SDS011;21260;34.984;32.490;2022-12-24T16:17:25;9.40;;;7.53;;
35074;SDS011;21260;34.984;32.490;2022-12-24T16:19:57;10.47;;;8.80;;
35074;SDS011;21260;34.984;32.490;2022-12-24T16:22:31;12.17;;;9.13;;
35074;SDS011;21260;34.984;32.490;2022-12-24T16:25:23;11.63;;;10.07;;
35074;SDS011;21260;34.984;32.490;2022-12-24T16:27:52;13.67;;;11.50;;
35074;SDS011;21260;34.984;32.490;2022-12-24T16:30:22;21.77;;;13.20;;
35074;SDS011;21260;34.984;32.490;2022-12-24T16:32:50;21.53;;;16.60;;
35074;SDS011;21260;34.984;32.490;2022-12-24T16:35:26;27.87;;;20.27;;
35074;SDS011;21260;34.984;32.490;2022-12-24T16:38:01;26.37;;;19.43;;
35074;SDS011;21260;34.984;32.490;2022-12-24T16:40:28;21.67;;;15.73;;
35074;SDS011;21260;34.984;32.490;2022-12-24T16:42:55;22.63;;;18.00;;
35074;SDS011;21260;34.984;32.490;2022-12-24T16:45:40;19.93;;;15.73;;
35074;SDS011;21260;34.984;32.490;2022-12-24T16:48:07;18.47;;;14.93;;
35074;SDS011;21260;34.984;32.490;2022-12-24T16:50:44;15.33;;;12.53;;
35074;SDS011;21260;34.984;32.490;2022-12-24T16:53:12;18.07;;;13.03;;
35074;SDS011;21260;34.984;32.490;2022-12-24T16:55:41;13.57;;;11.33;;
35074;SDS011;21260;34.984;32.490;2022-12-24T16:58:11;16.60;;;10.80;;
35074;SDS011;21260;34.984;32.490;2022-12-24T17:00:40;13.93;;;10.27;;
35074;SDS011;21260;34.984;32.490;2022-12-24T17:03:08;13.97;;;9.63;;
35074;SDS011;21260;34.984;32.490;2022-12-24T17:05:37;11.93;;;9.60;;
35074;SDS011;21260;34.984;32.490;2022-12-24T17:08:09;12.90;;;10.47;;